Terminal Aerodrome Forecast
Issued by NWS Medford, OR

Home | Current Version | Previous Version | Text Only | Print | Product List | Glossary On
Versions: 1 2 3 4 5 6 7 8 9 10 11 12
101
FTUS46 KMFR 031130
TAFMFR
TAF
KMFR 031130Z 0312/0412 VRB03KT P6SM SCT040
     FM031700 VRB03KT P6SM BKN040
     FM032300 32010KT P6SM -SHRA OVC040
     FM040300 VRB03KT P6SM -SHRA OVC035=

USA.gov is the U.S. government's official web portal to all federal, state and local government web resources and services.